createdAt,value
2019-01-05T00:01:37.195Z,39.00
2019-01-05T00:04:27.106Z,38.48
2019-01-05T00:07:19.690Z,38.97
2019-01-05T00:10:08.963Z,39.13
2019-01-05T00:13:08.650Z,37.70
2019-01-05T00:15:57.637Z,37.57
2019-01-05T00:18:47.654Z,36.87
2019-01-05T00:21:38.360Z,38.20
2019-01-05T00:24:26.299Z,38.17
2019-01-05T00:27:28.252Z,36.53
2019-01-05T00:30:36.335Z,37.27
2019-01-05T00:33:43.865Z,37.20
2019-01-05T00:36:58.897Z,37.43
2019-01-05T00:40:07.743Z,36.26
2019-01-05T00:42:57.586Z,35.33
2019-01-05T00:45:51.277Z,35.90
2019-01-05T00:48:55.245Z,35.30
2019-01-05T00:51:59.329Z,36.03
2019-01-05T00:54:49.350Z,35.63
2019-01-05T00:57:55.966Z,35.97
2019-01-05T01:00:39.260Z,34.80
2019-01-05T01:03:43.808Z,33.83
2019-01-05T01:06:52.116Z,33.08
2019-01-05T01:09:43.278Z,32.40
2019-01-05T01:12:31.281Z,32.40
2019-01-05T01:15:20.913Z,32.80
2019-01-05T01:18:12.057Z,34.97
2019-01-05T01:21:01.313Z,31.97
2019-01-05T01:24:06.065Z,33.83
2019-01-05T01:27:04.838Z,35.13
2019-01-05T01:30:12.335Z,35.60
2019-01-05T01:33:01.828Z,35.67
2019-01-05T01:35:58.733Z,34.05
2019-01-05T01:38:49.747Z,33.47
2019-01-05T01:41:48.350Z,34.57
2019-01-05T01:44:36.834Z,34.93
2019-01-05T01:47:39.957Z,34.47
2019-01-05T01:50:35.813Z,33.43
2019-01-05T01:53:30.093Z,32.83
2019-01-05T01:56:33.972Z,30.43
2019-01-05T01:59:46.479Z,31.17
2019-01-05T02:02:29.387Z,30.10
2019-01-05T02:05:18.476Z,28.85
2019-01-05T02:08:21.016Z,28.95
2019-01-05T02:11:21.061Z,30.30
2019-01-05T02:14:15.183Z,29.10
2019-01-05T02:17:11.845Z,29.00
2019-01-05T02:20:32.293Z,30.50
2019-01-05T02:24:26.366Z,27.43
2019-01-05T02:28:01.833Z,28.87
2019-01-05T02:31:18.563Z,25.95
2019-01-05T02:35:07.542Z,27.70
2019-01-05T02:38:26.829Z,25.73
2019-01-05T02:42:01.108Z,27.53
2019-01-05T02:45:27.229Z,26.10
2019-01-05T02:48:45.534Z,27.23
2019-01-05T02:52:22.680Z,27.37
2019-01-05T02:56:16.191Z,24.87
2019-01-05T02:59:55.233Z,22.62
2019-01-05T03:03:20.852Z,21.27
2019-01-05T03:06:44.093Z,20.85
2019-01-05T03:10:23.159Z,22.77
2019-01-05T03:13:41.396Z,22.50
2019-01-05T03:17:22.885Z,23.20
2019-01-05T03:20:58.513Z,22.75
2019-01-05T03:24:28.880Z,21.30
2019-01-05T03:28:08.404Z,20.80
2019-01-05T03:31:40.559Z,20.10
2019-01-05T03:35:17.285Z,20.65
2019-01-05T03:38:58.026Z,18.90
2019-01-05T03:42:28.967Z,18.67
2019-01-05T03:46:01.668Z,16.53
2019-01-05T03:49:44.712Z,16.73
2019-01-05T03:53:21.300Z,15.50
2019-01-05T03:56:46.583Z,14.67
2019-01-05T04:00:23.472Z,13.20
2019-01-05T04:03:51.570Z,12.35
2019-01-05T04:07:07.164Z,12.37
2019-01-05T04:10:51.549Z,12.27
2019-01-05T04:14:18.681Z,13.03
2019-01-05T04:17:57.574Z,12.58
2019-01-05T04:21:23.394Z,11.13
2019-01-05T04:24:51.884Z,11.05
2019-01-05T04:28:25.527Z,12.00
2019-01-05T04:31:57.280Z,11.07
2019-01-05T04:35:03.745Z,10.40
2019-01-05T04:38:48.124Z,10.33
2019-01-05T04:42:04.267Z,9.55
2019-01-05T04:45:46.743Z,10.07
2019-01-05T04:49:19.351Z,10.03
2019-01-05T04:52:32.904Z,8.87
2019-01-05T04:56:12.755Z,9.33
2019-01-05T04:59:44.987Z,8.30
2019-01-05T05:03:01.535Z,8.10
2019-01-05T05:06:41.275Z,8.33
2019-01-05T05:10:16.210Z,7.80
2019-01-05T05:13:53.535Z,8.35
2019-01-05T05:17:29.968Z,8.77
2019-01-05T05:21:10.123Z,8.30
2019-01-05T05:25:10.882Z,9.20
2019-01-05T05:28:44.189Z,9.93
2019-01-05T05:32:15.034Z,9.37
2019-01-05T05:35:48.645Z,9.83
2019-01-05T05:39:18.193Z,9.33
2019-01-05T05:42:51.857Z,9.60
2019-01-05T05:46:42.992Z,8.70
2019-01-05T05:50:29.235Z,8.43
2019-01-05T05:53:52.638Z,8.63
2019-01-05T05:57:26.585Z,7.30
2019-01-05T06:01:05.798Z,6.33
2019-01-05T06:04:38.483Z,6.23
2019-01-05T06:08:16.244Z,6.17
2019-01-05T06:11:52.795Z,5.87
2019-01-05T06:15:46.281Z,5.87
2019-01-05T06:19:10.949Z,5.60
2019-01-05T06:22:22.218Z,5.25
2019-01-05T06:25:51.563Z,5.20
2019-01-05T06:29:25.747Z,5.10
2019-01-05T06:32:49.336Z,4.60
2019-01-05T06:36:32.586Z,4.17
2019-01-05T06:40:00.241Z,4.00
2019-01-05T06:44:00.839Z,2.90
2019-01-05T06:47:35.837Z,3.47
2019-01-05T06:51:08.856Z,3.22
2019-01-05T06:54:59.822Z,3.57
2019-01-05T06:58:34.775Z,3.52
2019-01-05T07:02:05.856Z,4.00
2019-01-05T07:05:27.647Z,3.67
2019-01-05T07:08:49.114Z,4.50
2019-01-05T07:12:19.796Z,4.03
2019-01-05T07:16:08.414Z,3.73
2019-01-05T07:19:36.816Z,3.30
2019-01-05T07:23:24.318Z,2.90
2019-01-05T07:27:19.260Z,2.80
2019-01-05T07:30:49.431Z,3.07
2019-01-05T07:34:11.390Z,2.97
2019-01-05T07:37:50.606Z,2.77
2019-01-05T07:41:13.973Z,3.07
2019-01-05T07:44:52.815Z,4.00
2019-01-05T07:48:46.920Z,3.60
2019-01-05T07:52:44.946Z,3.47
2019-01-05T07:56:22.070Z,3.90
2019-01-05T08:00:09.048Z,3.57
2019-01-05T08:03:33.944Z,3.87
2019-01-05T08:07:09.409Z,4.37
2019-01-05T08:10:34.588Z,5.13
2019-01-05T08:14:21.079Z,4.77
2019-01-05T08:18:04.229Z,4.90
2019-01-05T08:22:16.881Z,4.97
2019-01-05T08:25:52.156Z,4.73
2019-01-05T08:29:09.943Z,5.15
2019-01-05T08:33:07.480Z,4.60
2019-01-05T08:36:37.376Z,5.22
2019-01-05T08:40:18.039Z,5.03
2019-01-05T08:44:00.104Z,4.47
2019-01-05T08:47:24.084Z,4.80
2019-01-05T08:50:39.701Z,4.97
2019-01-05T08:54:01.274Z,5.17
2019-01-05T08:57:33.842Z,4.93
2019-01-05T09:00:56.855Z,5.50
2019-01-05T09:04:43.619Z,4.90
2019-01-05T09:08:34.808Z,5.00
2019-01-05T09:12:17.973Z,5.47
2019-01-05T09:15:48.605Z,5.93
2019-01-05T09:19:52.473Z,5.30
2019-01-05T09:23:53.053Z,5.75
2019-01-05T09:27:25.511Z,6.65
2019-01-05T09:30:51.072Z,4.60
2019-01-05T09:34:26.693Z,5.37
2019-01-05T09:37:55.981Z,6.03
2019-01-05T09:41:24.802Z,4.97
2019-01-05T09:44:51.070Z,5.15
2019-01-05T09:48:32.476Z,5.30
2019-01-05T09:52:21.294Z,4.83
2019-01-05T09:55:50.702Z,5.00
2019-01-05T09:59:23.197Z,5.30
2019-01-05T10:02:39.495Z,4.50
2019-01-05T10:06:21.455Z,4.50
2019-01-05T10:10:00.693Z,4.53
2019-01-05T10:13:42.386Z,4.67
2019-01-05T10:17:42.865Z,4.47
2019-01-05T10:21:19.765Z,4.53
2019-01-05T10:25:24.495Z,5.75
2019-01-05T10:29:03.259Z,5.80
2019-01-05T10:32:24.300Z,4.50
2019-01-05T10:35:57.932Z,3.90
2019-01-05T10:39:55.814Z,3.92
2019-01-05T10:43:55.861Z,4.30
2019-01-05T10:47:36.051Z,5.43
2019-01-05T10:51:01.087Z,4.73
2019-01-05T10:54:44.730Z,4.80
2019-01-05T10:58:11.921Z,4.83
2019-01-05T11:01:46.575Z,4.85
2019-01-05T11:05:32.574Z,5.77
2019-01-05T11:09:13.378Z,5.07
2019-01-05T11:12:46.481Z,5.12
2019-01-05T11:16:32.549Z,4.50
2019-01-05T11:20:35.917Z,4.73
2019-01-05T11:24:00.805Z,4.90
2019-01-05T11:27:41.484Z,4.77
2019-01-05T11:31:19.777Z,4.63
2019-01-05T11:34:49.433Z,4.75
2019-01-05T11:38:11.284Z,4.87
2019-01-05T11:41:39.352Z,4.80
2019-01-05T11:45:06.618Z,4.80
2019-01-05T11:48:36.177Z,5.30
2019-01-05T11:52:14.929Z,4.60
2019-01-05T11:55:47.053Z,5.10
2019-01-05T11:59:11.770Z,5.03
2019-01-05T12:02:44.206Z,4.73
2019-01-05T12:06:32.576Z,5.42
2019-01-05T12:10:03.396Z,5.00
2019-01-05T12:13:38.495Z,4.50
2019-01-05T12:17:16.876Z,4.30
2019-01-05T12:20:52.469Z,4.62
2019-01-05T12:24:16.903Z,4.53
2019-01-05T12:27:51.995Z,4.47
2019-01-05T12:31:28.512Z,4.57
2019-01-05T12:35:20.055Z,4.30
2019-01-05T12:38:53.369Z,4.43
2019-01-05T12:42:44.851Z,5.13
2019-01-05T12:46:20.755Z,4.03
2019-01-05T12:49:58.475Z,4.80
2019-01-05T12:53:33.472Z,4.30
2019-01-05T12:57:26.615Z,5.34
2019-01-05T13:01:05.493Z,4.83
2019-01-05T13:04:38.510Z,4.67
2019-01-05T13:08:22.197Z,4.20
2019-01-05T13:11:44.003Z,4.07
2019-01-05T13:15:43.344Z,3.77
2019-01-05T13:19:08.291Z,3.80
2019-01-05T13:22:35.070Z,4.43
2019-01-05T13:26:11.728Z,4.03
2019-01-05T13:29:35.759Z,4.60
2019-01-05T13:33:15.459Z,4.77
2019-01-05T13:37:04.717Z,3.60
2019-01-05T13:40:29.900Z,4.03
2019-01-05T13:44:00.549Z,3.87
2019-01-05T13:47:36.336Z,3.33
2019-01-05T13:51:26.894Z,3.80
2019-01-05T13:54:16.415Z,4.03
2019-01-05T13:57:07.682Z,3.57
2019-01-05T13:59:57.308Z,3.17
2019-01-05T14:02:45.960Z,4.10
2019-01-05T14:05:39.228Z,3.83
2019-01-05T14:08:40.430Z,4.10
2019-01-05T14:11:32.839Z,4.03
2019-01-05T14:14:22.269Z,3.90
2019-01-05T14:17:25.620Z,3.70
2019-01-05T14:20:30.875Z,3.58
2019-01-05T14:23:18.383Z,3.30
2019-01-05T14:26:16.896Z,3.60
2019-01-05T14:29:04.919Z,4.20
2019-01-05T14:31:53.474Z,3.37
2019-01-05T14:34:55.540Z,3.47
2019-01-05T14:37:54.464Z,3.00
2019-01-05T14:40:53.885Z,3.07
2019-01-05T14:43:53.293Z,3.12
2019-01-05T14:46:55.694Z,4.10
2019-01-05T14:49:54.034Z,3.87
2019-01-05T14:52:43.522Z,4.40
2019-01-05T14:55:33.070Z,4.07
2019-01-05T14:58:22.442Z,4.33
2019-01-05T15:01:19.086Z,4.00
2019-01-05T15:04:11.174Z,4.12
2019-01-05T15:07:15.205Z,4.30
2019-01-05T15:09:58.542Z,4.70
2019-01-05T15:12:46.559Z,4.50
2019-01-05T15:15:34.165Z,4.80
2019-01-05T15:18:20.782Z,4.90
2019-01-05T15:21:09.653Z,4.52
2019-01-05T15:24:02.259Z,4.60
2019-01-05T15:26:50.730Z,4.90
2019-01-05T15:29:38.017Z,4.70
2019-01-05T15:32:40.050Z,4.55
2019-01-05T15:35:34.522Z,4.56
2019-01-05T15:38:24.336Z,4.50
2019-01-05T15:41:29.450Z,5.93
2019-01-05T15:44:21.560Z,4.74
2019-01-05T15:47:05.623Z,5.90
2019-01-05T15:50:10.663Z,6.27
2019-01-05T15:53:00.362Z,6.27
2019-01-05T15:55:46.540Z,6.50
2019-01-05T15:58:38.994Z,7.33
2019-01-05T16:01:31.155Z,7.08
2019-01-05T16:04:27.264Z,7.40
2019-01-05T16:07:13.451Z,7.87
2019-01-05T16:10:18.883Z,8.00
2019-01-05T16:13:09.588Z,8.08
2019-01-05T16:16:08.280Z,8.33
2019-01-05T16:18:57.816Z,8.35
2019-01-05T16:21:45.966Z,9.10
2019-01-05T16:24:31.461Z,9.60
2019-01-05T16:27:32.430Z,9.57
2019-01-05T16:30:19.187Z,9.50
2019-01-05T16:33:11.938Z,10.32
2019-01-05T16:35:57.692Z,9.97
2019-01-05T16:39:05.456Z,11.70
2019-01-05T16:41:49.577Z,11.40
2019-01-05T16:44:58.091Z,11.53
2019-01-05T16:47:46.430Z,11.23
2019-01-05T16:50:34.836Z,11.97
2019-01-05T16:53:23.792Z,11.90
2019-01-05T16:56:22.465Z,12.80
2019-01-05T16:59:20.243Z,12.57
2019-01-05T17:02:27.405Z,12.60
2019-01-05T17:05:15.464Z,13.20
2019-01-05T17:08:07.661Z,14.17
2019-01-05T17:10:53.288Z,13.23
2019-01-05T17:13:55.317Z,13.03
2019-01-05T17:16:50.565Z,12.80
2019-01-05T17:19:40.249Z,14.53
2019-01-05T17:22:28.404Z,13.60
2019-01-05T17:25:16.547Z,14.77
2019-01-05T17:28:23.856Z,13.57
2019-01-05T17:31:28.787Z,13.45
2019-01-05T17:34:16.969Z,14.03
2019-01-05T17:37:06.353Z,14.33
2019-01-05T17:39:55.140Z,14.13
2019-01-05T17:42:44.517Z,13.60
2019-01-05T17:45:45.314Z,13.03
2019-01-05T17:48:34.733Z,13.80
2019-01-05T17:51:24.566Z,11.70
2019-01-05T17:54:14.133Z,12.43
2019-01-05T17:57:15.815Z,12.80
2019-01-05T18:00:11.143Z,13.00
2019-01-05T18:03:00.706Z,12.33
2019-01-05T18:05:56.144Z,13.53
2019-01-05T18:08:44.110Z,13.23
2019-01-05T18:11:48.383Z,14.40
2019-01-05T18:14:38.290Z,13.88
2019-01-05T18:17:28.792Z,14.66
2019-01-05T18:20:19.883Z,15.10
2019-01-05T18:23:13.521Z,15.33
2019-01-05T18:26:01.814Z,14.27
2019-01-05T18:28:50.493Z,15.13
2019-01-05T18:31:49.189Z,14.90
2019-01-05T18:34:40.032Z,16.17
2019-01-05T18:37:41.405Z,16.30
2019-01-05T18:40:29.370Z,16.63
2019-01-05T18:43:25.032Z,17.13
2019-01-05T18:46:26.846Z,16.10
2019-01-05T18:49:15.260Z,16.50
2019-01-05T18:52:24.865Z,15.53
2019-01-05T18:55:17.235Z,15.83
2019-01-05T18:58:05.567Z,16.03
2019-01-05T19:00:53.989Z,17.67
2019-01-05T19:03:43.068Z,17.23
2019-01-05T19:06:34.071Z,17.07
2019-01-05T19:09:27.594Z,16.10
2019-01-05T19:12:15.402Z,16.53
2019-01-05T19:15:10.444Z,16.73
2019-01-05T19:17:58.307Z,17.07
2019-01-05T19:20:51.077Z,16.63
2019-01-05T19:23:40.715Z,17.85
2019-01-05T19:26:33.879Z,15.83
2019-01-05T19:29:22.054Z,17.83
2019-01-05T19:32:12.237Z,16.83
2019-01-05T19:35:07.884Z,18.00
2019-01-05T19:38:05.082Z,17.15
2019-01-05T19:40:57.077Z,16.20
2019-01-05T19:43:58.164Z,15.78
2019-01-05T19:46:56.632Z,15.63
2019-01-05T19:49:45.331Z,17.07
2019-01-05T19:52:51.685Z,14.37
2019-01-05T19:55:43.920Z,15.70
2019-01-05T19:58:45.273Z,15.13
2019-01-05T20:01:34.554Z,16.33
2019-01-05T20:04:22.754Z,15.37
2019-01-05T20:07:22.742Z,15.20
2019-01-05T20:10:11.051Z,17.33
2019-01-05T20:12:59.758Z,17.03
2019-01-05T20:15:58.500Z,16.60
2019-01-05T20:18:47.852Z,17.27
2019-01-05T20:21:35.903Z,19.07
2019-01-05T20:24:30.334Z,18.77
2019-01-05T20:27:23.848Z,19.03
2019-01-05T20:30:31.100Z,19.80
2019-01-05T20:33:29.861Z,19.93
2019-01-05T20:36:37.528Z,21.20
2019-01-05T20:39:26.594Z,20.90
2019-01-05T20:42:14.830Z,19.77
2019-01-05T20:44:58.587Z,21.03
2019-01-05T20:47:51.810Z,18.80
2019-01-05T20:50:56.057Z,19.32
2019-01-05T20:53:48.704Z,19.03
2019-01-05T20:56:36.828Z,19.47
2019-01-05T20:59:30.672Z,18.87
2019-01-05T21:02:38.656Z,18.27
2019-01-05T21:05:31.381Z,18.53
2019-01-05T21:08:13.795Z,18.70
2019-01-05T21:11:09.403Z,19.37
2019-01-05T21:14:03.914Z,19.00
2019-01-05T21:16:51.798Z,18.33
2019-01-05T21:19:50.422Z,17.37
2019-01-05T21:22:38.445Z,17.87
2019-01-05T21:25:28.145Z,18.90
2019-01-05T21:28:21.003Z,17.73
2019-01-05T21:31:09.365Z,18.13
2019-01-05T21:34:02.301Z,19.00
2019-01-05T21:36:58.250Z,19.37
2019-01-05T21:39:50.433Z,19.60
2019-01-05T21:42:41.018Z,21.13
2019-01-05T21:45:26.359Z,19.80
2019-01-05T21:48:34.088Z,20.60
2019-01-05T21:51:22.356Z,19.07
2019-01-05T21:54:27.191Z,19.60
2019-01-05T21:57:25.340Z,20.23
2019-01-05T22:00:13.526Z,19.47
2019-01-05T22:03:01.940Z,19.50
2019-01-05T22:05:54.704Z,19.10
2019-01-05T22:08:49.935Z,20.13
2019-01-05T22:11:46.659Z,18.57
2019-01-05T22:14:34.773Z,19.70
2019-01-05T22:17:42.504Z,20.70
2019-01-05T22:20:32.279Z,19.60
2019-01-05T22:23:20.662Z,17.70
2019-01-05T22:26:10.308Z,18.00
2019-01-05T22:29:00.993Z,18.40
2019-01-05T22:31:50.491Z,17.77
2019-01-05T22:34:38.623Z,16.53
2019-01-05T22:37:42.696Z,17.17
2019-01-05T22:40:31.301Z,16.15
2019-01-05T22:43:23.227Z,16.47
2019-01-05T22:46:21.897Z,17.47
2019-01-05T22:49:26.745Z,15.73
2019-01-05T22:52:24.203Z,16.20
2019-01-05T22:55:15.079Z,15.67
2019-01-05T22:58:10.326Z,16.50
2019-01-05T23:01:19.830Z,15.98
2019-01-05T23:04:15.007Z,16.13
2019-01-05T23:07:16.099Z,14.30
2019-01-05T23:10:07.235Z,15.50
2019-01-05T23:12:56.844Z,15.18
2019-01-05T23:15:58.617Z,14.77
2019-01-05T23:18:59.784Z,15.27
2019-01-05T23:21:54.197Z,15.90
2019-01-05T23:24:49.873Z,15.63
2019-01-05T23:27:46.757Z,14.90
2019-01-05T23:30:39.646Z,13.93
2019-01-05T23:33:27.715Z,14.20
2019-01-05T23:36:36.808Z,13.68
2019-01-05T23:39:30.293Z,14.18
2019-01-05T23:42:19.621Z,13.33
2019-01-05T23:45:06.824Z,12.37
2019-01-05T23:48:08.498Z,12.93
2019-01-05T23:51:16.485Z,13.00
2019-01-05T23:54:04.504Z,13.23
2019-01-05T23:57:13.288Z,12.37
